Redding Ridge, Connecticut
Current Conditions -  °F | °C
As of 3:53 AM on Thursday 18 Dec 2014 (Local Time) from KDXR Reporting Station
Overcast Overcast  
Wind Chill: 29°   Ceiling: 4900
Heat Index: 37°   Visibility: 10mi
Dew Point: 24°   Wind: 12mph
Humidity: 59%   Direction: 260°W
Pressure: 29.86"   Gusts: 18mph
Location:  41.31°N, 73.35°W
Report Text: KDXR 180853Z AUTO 26010G16KT 10SM SCT033 OVC049 03/M04 A2986 RMK AO2 SNB09E21 SLP113 P0000 60000 T00281044 53009
Loading
Personal Weather Stations






























Interactive Weather Map New forecast layout! Learn more

10-Day Weather Forecast

Advertisements
Track Severe Weather on mobile